Time;durP1;ratioP1;P1;durP2;ratioP2;P2;SDS_P1;SDS_P2;PMS_P1;PMS_P2;Temp;Humidity;BMP_temperature;BMP_pressure;BME280_temperature;BME280_humidity;BME280_pressure;Samples;Min_cycle;Max_cycle;Signal;HPM_P1;HPM_P2
2023/10/26 00:00:42;;;;;;;;;6.50;6.50;;;;;11.47;83.18;97654.50;5075769;28;9501;-59
2023/10/26 00:03:09;;;;;;;;;10.50;9.75;;;;;11.47;83.01;97657.16;5076026;28;8828;-59
2023/10/26 00:05:37;;;;;;;;;10.00;9.25;;;;;11.45;83.19;97661.00;5075386;28;8922;-57
2023/10/26 00:08:05;;;;;;;;;6.50;6.50;;;;;11.45;83.64;97663.66;5075515;28;8832;-59
2023/10/26 00:10:33;;;;;;;;;4.25;3.25;;;;;11.43;83.00;97660.34;5075994;28;8866;-59
2023/10/26 00:13:01;;;;;;;;;10.00;10.00;;;;;11.41;83.65;97663.22;5075318;28;8854;-57
2023/10/26 00:15:29;;;;;;;;;12.25;10.00;;;;;11.41;83.45;97663.22;5075339;28;8872;-58
2023/10/26 00:17:56;;;;;;;;;7.50;6.50;;;;;11.41;83.20;97665.88;5075821;28;8842;-59
2023/10/26 00:20:24;;;;;;;;;9.25;8.75;;;;;11.44;83.11;97670.00;5075200;28;8858;-59
2023/10/26 00:22:52;;;;;;;;;7.50;7.50;;;;;11.43;82.86;97669.19;5075112;28;8871;-59
2023/10/26 00:25:20;;;;;;;;;16.50;12.00;;;;;11.45;83.62;97677.81;5074804;28;8835;-57
2023/10/26 00:27:47;;;;;;;;;9.00;8.50;;;;;11.46;82.98;97673.31;5075422;28;8823;-59
2023/10/26 00:30:15;;;;;;;;;10.50;9.50;;;;;11.46;83.08;97678.66;5075702;28;8836;-57
2023/10/26 00:32:43;;;;;;;;;11.50;10.25;;;;;11.45;83.40;97680.47;5074288;28;9537;-58
2023/10/26 00:35:10;;;;;;;;;12.00;9.50;;;;;11.46;83.02;97684.78;5075336;28;8838;-59
2023/10/26 00:37:38;;;;;;;;;9.00;8.50;;;;;11.45;83.75;97685.81;5075471;28;8840;-57
2023/10/26 00:40:05;;;;;;;;;12.75;10.00;;;;;11.46;83.32;97690.13;5075253;28;8824;-56
2023/10/26 00:42:33;;;;;;;;;8.50;7.50;;;;;11.45;82.88;97691.13;5076129;28;8816;-60
2023/10/26 00:45:01;;;;;;;;;11.00;10.00;;;;;11.45;83.00;97707.13;5075305;28;8905;-58
2023/10/26 00:47:28;;;;;;;;;11.00;9.75;;;;;11.44;83.35;97697.47;5074951;28;8866;-59
2023/10/26 00:49:56;;;;;;;;;11.50;10.00;;;;;11.45;83.32;97695.66;5075513;28;8813;-58
2023/10/26 00:52:23;;;;;;;;;12.50;11.00;;;;;11.45;83.16;97690.31;5075149;28;8819;-58
2023/10/26 00:54:51;;;;;;;;;9.00;8.50;;;;;11.43;83.71;97692.31;5074894;28;8851;-59
2023/10/26 00:57:18;;;;;;;;;9.00;6.00;;;;;11.41;83.66;97691.69;5075074;28;8816;-58
2023/10/26 00:59:46;;;;;;;;;10.50;9.00;;;;;11.40;83.65;97693.53;5074727;28;8820;-57
2023/10/26 01:02:14;;;;;;;;;11.00;8.00;;;;;11.40;83.19;97701.53;5074726;28;8824;-57
2023/10/26 01:04:42;;;;;;;;;10.50;8.50;;;;;11.40;83.55;97704.19;5074872;28;8824;-58
2023/10/26 01:07:10;;;;;;;;;9.00;6.50;;;;;11.38;83.37;97714.19;5074696;28;8958;-59
2023/10/26 01:09:38;;;;;;;;;10.75;10.75;;;;;11.37;83.42;97712.53;5075008;28;8808;-57
2023/10/26 01:12:05;;;;;;;;;9.25;7.50;;;;;11.36;83.36;97712.75;5075501;28;8828;-58
2023/10/26 01:14:33;;;;;;;;;8.50;7.50;;;;;11.35;83.42;97725.22;5074667;28;8848;-59
2023/10/26 01:17:01;;;;;;;;;9.50;9.00;;;;;11.34;83.55;97720.91;5074439;28;8905;-59
2023/10/26 01:19:28;;;;;;;;;12.50;9.00;;;;;11.33;83.50;97731.72;5075467;28;8840;-57
2023/10/26 01:21:56;;;;;;;;;9.25;8.75;;;;;11.31;83.68;97736.41;5074901;28;8838;-58
2023/10/26 01:24:23;;;;;;;;;10.00;9.00;;;;;11.31;83.60;97731.09;5074426;28;9480;-59
2023/10/26 01:26:51;;;;;;;;;8.25;8.25;;;;;11.30;83.12;97737.44;5075461;28;8832;-57
2023/10/26 01:29:19;;;;;;;;;14.00;12.25;;;;;11.30;83.72;97745.44;5074730;28;8828;-57
2023/10/26 01:31:47;;;;;;;;;8.00;7.00;;;;;11.27;83.45;97743.94;5075006;28;8824;-58
2023/10/26 01:34:15;;;;;;;;;12.75;12.75;;;;;11.26;83.27;97741.44;5074486;28;8832;-59
2023/10/26 01:36:42;;;;;;;;;11.00;9.50;;;;;11.24;83.58;97741.63;5074597;28;8897;-57
2023/10/26 01:39:10;;;;;;;;;8.25;7.00;;;;;11.22;83.43;97745.50;5074754;28;8812;-57
2023/10/26 01:41:37;;;;;;;;;12.25;11.00;;;;;11.20;83.94;97744.81;5075038;28;9552;-57
2023/10/26 01:44:05;;;;;;;;;10.50;10.50;;;;;11.18;84.21;97746.84;5074557;28;8844;-59
2023/10/26 01:46:33;;;;;;;;;8.50;6.00;;;;;11.15;84.15;97748.03;5074744;28;8828;-57
2023/10/26 01:49:00;;;;;;;;;9.50;8.00;;;;;11.13;84.00;97755.38;5074382;28;8831;-60
2023/10/26 01:51:28;;;;;;;;;9.25;7.50;;;;;11.10;83.56;97747.75;5074713;28;9502;-57
2023/10/26 01:53:56;;;;;;;;;11.50;8.50;;;;;11.09;83.71;97742.59;5075023;28;9909;-58
2023/10/26 01:56:23;;;;;;;;;9.50;9.25;;;;;11.08;83.55;97757.75;5074161;28;8918;-59
2023/10/26 01:58:51;;;;;;;;;11.50;9.25;;;;;11.09;83.61;97759.41;5074482;28;8867;-58
2023/10/26 02:01:18;;;;;;;;;9.25;7.50;;;;;11.08;83.91;97757.75;5074237;28;8831;-57
2023/10/26 02:03:46;;;;;;;;;12.75;10.00;;;;;11.06;83.67;97754.44;5074625;28;8820;-57
2023/10/26 02:06:14;;;;;;;;;13.25;12.00;;;;;11.05;83.88;97751.94;5075391;28;8828;-57
2023/10/26 02:08:43;;;;;;;;;9.00;9.00;;;;;11.02;83.48;97753.16;5074727;28;8824;-58
2023/10/26 02:11:10;;;;;;;;;7.50;6.50;;;;;11.01;83.45;97761.31;5074197;28;8820;-58
2023/10/26 02:13:38;;;;;;;;;7.00;6.75;;;;;10.99;83.82;97763.34;5074675;28;8854;-57
2023/10/26 02:16:06;;;;;;;;;12.00;12.00;;;;;10.96;84.24;97764.50;5074298;28;8828;-58
2023/10/26 02:18:34;;;;;;;;;5.50;5.00;;;;;10.93;84.22;97764.03;5074783;28;8855;-57
2023/10/26 02:21:01;;;;;;;;;6.75;6.00;;;;;10.90;83.64;97765.22;5074164;28;8820;-59
2023/10/26 02:23:29;;;;;;;;;7.00;6.75;;;;;10.89;84.35;97774.22;5073925;28;8874;-57
2023/10/26 02:25:57;;;;;;;;;6.50;6.25;;;;;10.86;83.93;97771.06;5073833;28;8833;-58
2023/10/26 02:28:25;;;;;;;;;5.25;4.50;;;;;10.85;84.09;97772.09;5074578;28;8832;-56
2023/10/26 02:30:53;;;;;;;;;6.50;6.50;;;;;10.82;83.90;97778.59;5074191;28;8828;-58
2023/10/26 02:33:21;;;;;;;;;6.25;6.25;;;;;10.80;84.17;97782.44;5074084;28;8824;-59
2023/10/26 02:35:48;;;;;;;;;9.25;7.50;;;;;10.80;83.90;97790.41;5073899;28;8953;-59
2023/10/26 02:38:16;;;;;;;;;9.00;8.00;;;;;10.79;84.56;97789.59;5073770;28;8856;-59
2023/10/26 02:40:44;;;;;;;;;8.50;7.00;;;;;10.79;84.53;97792.25;5074130;28;8871;-55
2023/10/26 02:43:11;;;;;;;;;7.00;6.75;;;;;10.79;84.28;97794.09;5074033;28;8846;-59
2023/10/26 02:45:40;;;;;;;;;3.00;3.00;;;;;10.77;84.19;97799.56;5074449;28;8832;-57
2023/10/26 02:48:08;;;;;;;;;13.50;12.75;;;;;10.76;84.05;97811.22;5073343;28;8824;-59
2023/10/26 02:50:35;;;;;;;;;12.00;8.50;;;;;10.74;84.70;97807.09;5073483;28;8863;-59
2023/10/26 02:53:03;;;;;;;;;8.00;7.00;;;;;10.72;84.46;97807.28;5073625;28;8828;-58
2023/10/26 02:55:31;;;;;;;;;8.50;7.00;;;;;10.70;84.48;97806.59;5073668;28;8836;-60
2023/10/26 02:57:59;;;;;;;;;6.50;5.50;;;;;10.69;84.45;97812.13;5077037;28;8828;-59
2023/10/26 03:00:26;;;;;;;;;8.50;6.75;;;;;10.68;84.78;97813.94;5077705;28;9583;-57
2023/10/26 03:02:54;;;;;;;;;7.50;7.50;;;;;10.67;84.75;97811.44;5077000;28;8828;-59
2023/10/26 03:05:22;;;;;;;;;8.00;7.00;;;;;10.65;84.98;97814.31;5077123;28;8824;-59
2023/10/26 03:07:50;;;;;;;;;5.50;4.00;;;;;10.64;84.53;97817.97;5077181;28;8901;-58
2023/10/26 03:10:17;;;;;;;;;5.00;5.00;;;;;10.64;84.58;97814.47;5077829;28;8832;-58
2023/10/26 03:12:48;;;;;;;;;7.50;6.75;;;;;10.63;84.19;97813.63;5077021;28;8843;-59
2023/10/26 03:15:16;;;;;;;;;5.75;5.00;;;;;10.63;84.96;97816.28;5077771;28;8995;-59
2023/10/26 03:17:44;;;;;;;;;8.00;6.50;;;;;10.62;84.59;97814.63;5077175;28;8946;-58
2023/10/26 03:20:12;;;;;;;;;8.00;6.00;;;;;10.63;84.60;97815.47;5076771;28;8820;-59
2023/10/26 03:22:39;;;;;;;;;8.00;6.00;;;;;10.63;84.41;97815.47;5077151;28;8836;-58
2023/10/26 03:25:08;;;;;;;;;6.50;6.00;;;;;10.63;84.23;97826.94;5075006;28;8882;-57
2023/10/26 03:27:36;;;;;;;;;8.50;6.00;;;;;10.63;84.82;97818.94;5075278;28;8824;-57
2023/10/26 03:30:04;;;;;;;;;5.75;4.50;;;;;10.65;84.26;97821.44;5075718;28;8832;-58
2023/10/26 03:32:31;;;;;;;;;10.50;9.75;;;;;10.64;84.59;97817.13;5075463;28;8832;-60
2023/10/26 03:35:00;;;;;;;;;10.75;9.25;;;;;10.64;84.34;97831.28;5075913;28;8891;-57
2023/10/26 03:37:28;;;;;;;;;10.25;8.75;;;;;10.64;84.40;97831.28;5076118;28;8827;-59
2023/10/26 03:39:56;;;;;;;;;6.50;6.50;;;;;10.63;84.14;97826.13;5076413;28;8897;-58
2023/10/26 03:42:24;;;;;;;;;6.50;6.50;;;;;10.62;84.33;97833.25;5076116;28;8832;-57
2023/10/26 03:44:51;;;;;;;;;5.00;3.50;;;;;10.63;84.27;97832.25;5076618;28;9549;-58
2023/10/26 03:47:19;;;;;;;;;8.50;7.50;;;;;10.63;84.08;97832.25;5076397;28;8896;-59
2023/10/26 03:49:51;;;;;;;;;7.00;7.00;;;;;10.63;84.60;97829.59;5075682;28;8828;-59
2023/10/26 03:52:19;;;;;;;;;9.25;8.50;;;;;10.64;84.46;97817.97;5076453;28;8820;-59
2023/10/26 03:54:46;;;;;;;;;10.50;9.25;;;;;10.64;84.04;97820.63;5075353;28;8836;-59
2023/10/26 03:57:14;;;;;;;;;3.00;3.00;;;;;10.65;84.52;97818.78;5075383;28;8954;-59
2023/10/26 03:59:42;;;;;;;;;10.00;6.00;;;;;10.65;84.03;97832.94;5074998;28;8836;-60
2023/10/26 04:02:10;;;;;;;;;10.50;8.00;;;;;10.65;84.38;97822.28;5074476;28;8851;-57
2023/10/26 04:04:39;;;;;;;;;6.75;5.75;;;;;10.66;84.76;97831.94;5073670;28;8832;-58
2023/10/26 04:07:07;;;;;;;;;9.75;7.50;;;;;10.65;84.46;97830.28;5074239;28;8851;-56
2023/10/26 04:09:35;;;;;;;;;9.50;6.25;;;;;10.64;84.60;97830.44;5074670;28;8828;-59
2023/10/26 04:12:03;;;;;;;;;7.00;5.00;;;;;10.64;83.86;97827.78;5074990;28;8827;-59
2023/10/26 04:14:31;;;;;;;;;10.50;9.25;;;;;10.64;84.12;97827.78;5074397;28;8856;-58
2023/10/26 04:16:58;;;;;;;;;9.50;9.25;;;;;10.64;84.02;97822.44;5075257;28;8832;-59
2023/10/26 04:19:26;;;;;;;;;7.00;6.00;;;;;10.63;84.02;97832.25;5076062;28;8871;-58
2023/10/26 04:21:54;;;;;;;;;11.00;8.00;;;;;10.63;83.94;97829.59;5075619;28;8812;-57
2023/10/26 04:24:21;;;;;;;;;7.00;6.00;;;;;10.64;84.30;97823.28;5076001;28;8832;-57
2023/10/26 04:26:50;;;;;;;;;12.25;10.00;;;;;10.64;83.86;97823.28;5074970;28;8852;-59
2023/10/26 04:29:18;;;;;;;;;9.25;9.25;;;;;10.64;84.02;97822.44;5074977;28;8844;-59
2023/10/26 04:31:46;;;;;;;;;10.00;10.00;;;;;10.64;83.76;97822.44;5074914;28;8875;-57
2023/10/26 04:34:13;;;;;;;;;10.50;9.50;;;;;10.64;84.03;97810.00;5075736;28;8897;-57
2023/10/26 04:36:42;;;;;;;;;9.00;9.00;;;;;10.64;84.50;97815.31;5074653;28;8863;-60
2023/10/26 04:39:10;;;;;;;;;6.50;5.50;;;;;10.67;84.22;97816.78;5075115;28;8844;-57
2023/10/26 04:41:38;;;;;;;;;11.50;9.25;;;;;10.67;83.98;97822.09;5075274;28;8831;-58
2023/10/26 04:44:06;;;;;;;;;10.00;9.75;;;;;10.68;83.89;97824.59;5074958;28;8886;-58
2023/10/26 04:46:34;;;;;;;;;9.00;7.00;;;;;10.69;83.78;97818.25;5074389;28;8970;-58
2023/10/26 04:49:02;;;;;;;;;10.00;9.25;;;;;10.69;84.08;97818.25;5074123;28;8824;-58
2023/10/26 04:51:31;;;;;;;;;8.50;6.75;;;;;10.69;84.15;97820.91;5074264;28;8836;-57
2023/10/26 04:53:59;;;;;;;;;6.00;6.00;;;;;10.69;83.90;97826.25;5074417;28;8824;-58
2023/10/26 04:56:27;;;;;;;;;9.75;9.50;;;;;10.69;83.97;97826.25;5074176;28;8835;-57
2023/10/26 04:58:55;;;;;;;;;9.00;7.00;;;;;10.69;83.84;97826.25;5074215;28;8858;-59
2023/10/26 05:01:24;;;;;;;;;12.00;10.50;;;;;10.68;83.91;97815.75;5075147;28;8856;-59
2023/10/26 05:03:53;;;;;;;;;9.75;9.75;;;;;10.67;84.04;97820.28;5074305;28;8824;-58
2023/10/26 05:06:21;;;;;;;;;11.25;9.50;;;;;10.66;84.08;97820.44;5074649;28;9506;-59
2023/10/26 05:08:48;;;;;;;;;13.25;11.25;;;;;10.66;84.04;97825.75;5073845;28;8859;-57
2023/10/26 05:11:16;;;;;;;;;3.25;1.50;;;;;10.66;84.05;97831.09;5073659;28;8824;-57
2023/10/26 05:13:44;;;;;;;;;9.25;7.50;;;;;10.67;84.00;97833.59;5073000;28;8832;-57
2023/10/26 05:16:11;;;;;;;;;9.50;7.50;;;;;10.65;84.55;97830.28;5073350;28;8836;-57
2023/10/26 05:18:39;;;;;;;;;12.75;10.25;;;;;10.65;84.11;97821.44;5072431;28;8958;-58
2023/10/26 05:21:06;;;;;;;;;9.33;7.67;;;;;10.64;84.05;97830.44;5072784;28;8912;-57
2023/10/26 05:23:34;;;;;;;;;11.75;10.00;;;;;10.62;84.04;97830.59;5073254;28;8918;-57
2023/10/26 05:26:02;;;;;;;;;11.25;10.00;;;;;10.63;84.23;97832.25;5072564;28;8828;-57
2023/10/26 05:28:31;;;;;;;;;10.00;7.25;;;;;10.63;84.11;97829.59;5072921;28;9481;-58
2023/10/26 05:30:58;;;;;;;;;11.50;10.00;;;;;10.62;84.37;97827.94;5072944;28;8836;-58
2023/10/26 05:33:26;;;;;;;;;15.25;12.25;;;;;10.64;84.16;97817.13;5071879;28;8844;-57
2023/10/26 05:35:54;;;;;;;;;11.50;9.50;;;;;10.65;83.78;97821.44;5073070;28;8862;-58
2023/10/26 05:38:21;;;;;;;;;9.00;4.00;;;;;10.65;84.31;97822.28;5073103;28;8828;-57
2023/10/26 05:40:50;;;;;;;;;13.50;11.50;;;;;10.67;84.24;97814.94;5072847;28;8917;-57
2023/10/26 05:43:17;;;;;;;;;10.00;9.00;;;;;10.67;84.22;97820.28;5072717;28;8917;-58
2023/10/26 05:45:45;;;;;;;;;12.00;10.00;;;;;10.67;83.96;97814.94;5072826;28;9577;-57
2023/10/26 05:48:12;;;;;;;;;8.00;8.00;;;;;10.67;83.82;97808.78;5072554;28;8828;-56
2023/10/26 05:50:41;;;;;;;;;9.50;9.00;;;;;10.66;84.38;97810.63;5072880;28;8836;-59
2023/10/26 05:53:09;;;;;;;;;9.75;9.25;;;;;10.66;84.11;97820.44;5072589;28;8812;-59
2023/10/26 05:55:39;;;;;;;;;7.00;6.50;;;;;10.65;83.99;97814.31;5072536;28;8987;-58
2023/10/26 05:58:08;;;;;;;;;9.00;8.00;;;;;10.66;83.82;97815.97;5072774;28;8938;-57
2023/10/26 06:00:37;;;;;;;;;11.50;10.00;;;;;10.67;84.13;97808.78;5073060;28;8839;-59
2023/10/26 06:03:05;;;;;;;;;7.00;7.00;;;;;10.69;84.03;97818.25;5072832;28;8812;-59
2023/10/26 06:05:33;;;;;;;;;10.00;9.25;;;;;10.71;83.92;97818.09;5072331;28;8852;-57
2023/10/26 06:08:01;;;;;;;;;12.00;10.00;;;;;10.71;84.14;97815.44;5073031;28;8832;-57
2023/10/26 06:10:29;;;;;;;;;12.25;10.00;;;;;10.70;84.21;97811.91;5072259;28;8839;-59
2023/10/26 06:12:56;;;;;;;;;5.00;4.25;;;;;10.71;83.97;97818.91;5072076;28;9549;-59
2023/10/26 06:15:24;;;;;;;;;10.00;9.00;;;;;10.72;84.21;97822.41;5072431;28;8979;-58
2023/10/26 06:17:52;;;;;;;;;3.50;2.25;;;;;10.73;83.62;97824.91;5072206;28;8850;-57
2023/10/26 06:20:22;;;;;;;;;14.25;12.50;;;;;10.72;83.94;97819.75;5072288;28;8843;-57
2023/10/26 06:22:49;;;;;;;;;15.75;13.25;;;;;10.73;83.78;97832.88;5072888;28;9540;-58
2023/10/26 06:25:17;;;;;;;;;12.00;10.00;;;;;10.72;84.19;97833.91;5072656;28;8828;-57
2023/10/26 06:27:45;;;;;;;;;9.50;9.25;;;;;10.72;84.11;97828.56;5073256;28;8858;-57
2023/10/26 06:30:15;;;;;;;;;11.00;10.50;;;;;10.73;84.03;97832.03;5073075;28;8974;-58
2023/10/26 06:32:42;;;;;;;;;12.75;10.00;;;;;10.71;84.05;97850.03;5076639;28;8820;-57
2023/10/26 06:35:10;;;;;;;;;13.50;11.50;;;;;10.71;83.92;97847.38;5076570;28;8836;-59
2023/10/26 06:37:38;;;;;;;;;12.25;11.00;;;;;10.71;83.80;97845.53;5076409;28;8855;-57
2023/10/26 06:40:06;;;;;;;;;9.50;7.50;;;;;10.72;84.04;97846.38;5076571;28;8839;-60
2023/10/26 06:42:34;;;;;;;;;11.50;11.25;;;;;10.73;83.79;97848.03;5076314;28;8832;-59
2023/10/26 06:45:02;;;;;;;;;12.50;11.50;;;;;10.72;83.71;97852.53;5076846;28;8848;-57
2023/10/26 06:47:30;;;;;;;;;17.75;17.00;;;;;10.74;83.84;97855.00;5076480;28;8940;-59
2023/10/26 06:49:58;;;;;;;;;8.00;6.00;;;;;10.74;83.93;97855.00;5076281;28;8828;-59
2023/10/26 06:52:26;;;;;;;;;12.75;12.50;;;;;10.75;83.88;97868.16;5075874;28;8840;-57
2023/10/26 06:54:55;;;;;;;;;13.00;11.75;;;;;10.76;83.87;97861.81;5076391;28;9470;-58
2023/10/26 06:57:23;;;;;;;;;10.50;9.75;;;;;10.76;83.55;97864.47;5076286;28;8837;-60
2023/10/26 06:59:51;;;;;;;;;10.00;10.00;;;;;10.77;84.23;97852.81;5075380;28;8854;-59
2023/10/26 07:02:19;;;;;;;;;17.00;16.00;;;;;10.79;83.50;97857.97;5074888;28;8887;-58
2023/10/26 07:04:46;;;;;;;;;17.25;14.50;;;;;10.79;83.66;97861.47;5075863;28;9978;-59
2023/10/26 07:07:14;;;;;;;;;15.25;14.00;;;;;10.79;83.94;97863.31;5076014;28;8966;-59
2023/10/26 07:09:42;;;;;;;;;13.50;12.75;;;;;10.79;83.89;97858.81;5075682;28;9616;-57
2023/10/26 07:12:12;;;;;;;;;18.00;15.75;;;;;10.79;83.52;97863.31;5075445;28;8958;-60
2023/10/26 07:14:40;;;;;;;;;11.75;9.00;;;;;10.78;83.82;97858.97;5075669;28;8860;-58
2023/10/26 07:17:08;;;;;;;;;15.25;12.00;;;;;10.76;83.58;97861.81;5075765;28;8836;-59
2023/10/26 07:19:36;;;;;;;;;12.00;12.00;;;;;10.76;84.08;97864.47;5075950;28;8832;-58
2023/10/26 07:22:04;;;;;;;;;18.00;17.00;;;;;10.78;83.95;97865.13;5075687;28;8840;-57
2023/10/26 07:24:32;;;;;;;;;10.33;9.67;;;;;10.78;83.87;97873.09;5075774;28;8962;-57
2023/10/26 07:27:00;;;;;;;;;15.50;13.00;;;;;10.79;83.87;97866.81;5076097;28;8831;-57
2023/10/26 07:29:27;;;;;;;;;15.25;12.75;;;;;10.80;83.64;97865.78;5076410;28;8901;-58
2023/10/26 07:31:56;;;;;;;;;15.00;12.50;;;;;10.82;83.73;97860.28;5075698;28;8858;-60
2023/10/26 07:34:24;;;;;;;;;20.50;13.50;;;;;10.85;83.70;97852.78;5074590;28;8832;-59
2023/10/26 07:36:52;;;;;;;;;18.50;15.75;;;;;10.87;83.92;97850.78;5075300;28;8883;-60
2023/10/26 07:39:20;;;;;;;;;12.25;11.00;;;;;10.89;84.09;97854.09;5075834;28;9520;-60
2023/10/26 07:42:08;;;;;;;;;17.00;13.00;;;;;10.89;83.67;97843.44;5075058;28;8847;-57
2023/10/26 07:44:37;;;;;;;;;20.25;15.75;;;;;10.89;83.71;97854.09;5075241;28;8859;-58
2023/10/26 07:47:08;;;;;;;;;19.00;16.00;;;;;10.87;83.54;97850.78;5075771;28;8820;-58
2023/10/26 07:49:36;;;;;;;;;15.25;15.00;;;;;10.86;83.93;97851.75;5075630;28;8848;-59
2023/10/26 07:52:05;;;;;;;;;12.00;10.50;;;;;10.86;84.06;97851.75;5075604;28;8828;-59
2023/10/26 07:54:33;;;;;;;;;18.25;16.50;;;;;10.83;83.83;97852.13;5075685;28;8820;-59
2023/10/26 07:57:01;;;;;;;;;17.00;16.25;;;;;10.83;83.56;97852.13;5075530;28;8914;-60
2023/10/26 07:59:29;;;;;;;;;18.75;15.75;;;;;10.82;84.04;97849.63;5075129;28;8828;-60
2023/10/26 08:01:57;;;;;;;;;23.75;20.00;;;;;10.79;83.99;97853.50;5075068;28;8828;-59
2023/10/26 08:04:25;;;;;;;;;5.50;3.25;;;;;10.78;83.75;97841.16;5075035;28;8836;-60
2023/10/26 08:06:55;;;;;;;;;21.75;20.25;;;;;10.78;83.65;97843.00;5074904;28;9749;-59
2023/10/26 08:09:22;;;;;;;;;17.00;17.00;;;;;10.78;83.49;97853.66;5074763;28;8967;-59
2023/10/26 08:11:50;;;;;;;;;15.25;11.75;;;;;10.77;83.74;97841.34;5074317;28;8972;-59
2023/10/26 08:14:22;;;;;;;;;17.50;15.00;;;;;10.77;83.80;97849.34;5074559;28;8862;-58
2023/10/26 08:17:11;;;;;;;;;16.25;14.75;;;;;10.77;83.65;97850.16;5074446;28;8855;-58
2023/10/26 08:19:39;;;;;;;;;19.00;16.75;;;;;10.77;84.05;97852.81;5074926;28;8876;-57
2023/10/26 08:22:09;;;;;;;;;18.75;15.75;;;;;10.78;83.68;97840.34;5074227;28;8827;-58
2023/10/26 08:24:37;;;;;;;;;20.50;18.50;;;;;10.78;83.74;97833.19;5074239;28;8917;-59
2023/10/26 08:27:05;;;;;;;;;20.25;19.25;;;;;10.79;83.70;97826.03;5074591;28;8866;-58
2023/10/26 08:29:33;;;;;;;;;18.75;16.75;;;;;10.81;83.91;97830.19;5073864;28;8848;-57
2023/10/26 08:32:02;;;;;;;;;20.00;16.25;;;;;10.85;84.01;97831.47;5073387;28;8840;-58
2023/10/26 08:34:30;;;;;;;;;28.75;22.00;;;;;10.89;83.62;97838.13;5073543;28;8835;-61
2023/10/26 08:36:58;;;;;;;;;19.25;17.50;;;;;10.92;83.29;97837.75;5073278;28;8836;-58
2023/10/26 08:39:40;;;;;;;;;13.50;9.25;;;;;10.94;83.15;97850.91;5073154;28;8824;-57
2023/10/26 08:42:09;;;;;;;;;17.25;16.00;;;;;10.99;83.54;97838.72;5073752;28;8844;-57
2023/10/26 08:44:39;;;;;;;;;21.50;18.00;;;;;11.02;83.02;97841.03;5074185;28;8856;-58
2023/10/26 08:47:07;;;;;;;;;12.75;12.00;;;;;11.06;83.20;97850.31;5074266;28;8917;-58
2023/10/26 08:49:36;;;;;;;;;16.50;14.00;;;;;11.11;83.04;97850.63;5074067;28;8851;-58
2023/10/26 08:52:05;;;;;;;;;15.00;15.00;;;;;11.16;83.27;97856.25;5074048;28;8883;-58
2023/10/26 08:54:33;;;;;;;;;10.50;8.00;;;;;11.17;82.68;97855.25;5073511;28;8836;-59
2023/10/26 08:57:01;;;;;;;;;21.25;20.00;;;;;11.20;83.28;97854.06;5073131;28;8824;-60
2023/10/26 08:59:29;;;;;;;;;26.50;18.75;;;;;11.22;82.82;97862.72;5073895;28;9819;-58
2023/10/26 09:01:57;;;;;;;;;21.25;17.00;;;;;11.23;82.78;97859.84;5073640;28;8829;-60
2023/10/26 09:04:25;;;;;;;;;17.00;15.50;;;;;11.26;82.73;97864.00;5072667;28;8929;-58
2023/10/26 09:06:54;;;;;;;;;19.25;16.75;;;;;11.25;83.03;97865.84;5073325;28;8850;-59
2023/10/26 09:09:21;;;;;;;;;19.75;17.50;;;;;11.26;82.76;97861.34;5073609;28;8875;-58
2023/10/26 09:11:50;;;;;;;;;15.25;9.75;;;;;11.25;83.03;97865.84;5072890;28;8966;-57
2023/10/26 09:14:18;;;;;;;;;24.75;21.75;;;;;11.25;82.93;97873.00;5072888;28;8970;-57
2023/10/26 09:16:46;;;;;;;;;16.25;15.00;;;;;11.24;83.10;97887.34;5073171;28;8832;-59
2023/10/26 09:19:14;;;;;;;;;18.50;18.00;;;;;11.27;83.17;97890.47;5072621;28;8858;-58
2023/10/26 09:21:42;;;;;;;;;12.67;10.00;;;;;11.32;82.83;97896.13;5073120;28;8836;-59
2023/10/26 09:24:10;;;;;;;;;16.00;14.00;;;;;11.35;83.06;97893.09;5073140;28;8848;-58
2023/10/26 09:26:40;;;;;;;;;16.00;15.00;;;;;11.38;82.59;97887.38;5073986;28;8836;-58
2023/10/26 09:29:09;;;;;;;;;15.00;13.75;;;;;11.40;82.77;97890.72;5073114;28;8832;-58
2023/10/26 09:31:37;;;;;;;;;9.75;8.00;;;;;11.38;82.51;97892.72;5072981;28;8832;-60
2023/10/26 09:34:05;;;;;;;;;20.00;18.00;;;;;11.35;82.85;97893.09;5072928;28;8847;-59
2023/10/26 09:36:35;;;;;;;;;6.00;4.50;;;;;11.36;82.80;97886.75;5073169;28;9640;-57
2023/10/26 09:39:04;;;;;;;;;14.75;14.00;;;;;11.37;83.01;97896.41;5072842;28;8878;-59
2023/10/26 09:41:33;;;;;;;;;19.75;17.50;;;;;11.35;82.94;97906.41;5073186;28;8828;-57
2023/10/26 09:44:01;;;;;;;;;23.00;20.50;;;;;11.35;82.77;97918.91;5072343;28;8840;-57
2023/10/26 09:46:29;;;;;;;;;13.75;11.00;;;;;11.31;82.81;97913.09;5071959;28;8828;-59
2023/10/26 09:48:57;;;;;;;;;21.00;15.75;;;;;11.29;83.09;97915.09;5073183;28;9760;-58
2023/10/26 09:51:26;;;;;;;;;23.75;18.00;;;;;11.27;83.09;97909.13;5072785;28;8839;-58
2023/10/26 09:53:54;;;;;;;;;15.00;15.00;;;;;11.28;82.99;97913.44;5071588;28;8844;-59
2023/10/26 09:56:22;;;;;;;;;7.25;6.25;;;;;11.28;82.86;97917.94;5072075;28;8832;-60
2023/10/26 09:58:52;;;;;;;;;14.50;13.00;;;;;11.29;82.59;97920.44;5073259;28;8898;-59
2023/10/26 10:01:20;;;;;;;;;20.25;16.00;;;;;11.32;83.08;97925.44;5072764;28;8832;-60
2023/10/26 10:03:51;;;;;;;;;14.50;12.75;;;;;11.36;83.22;97921.38;5073208;28;8888;-59
2023/10/26 10:06:22;;;;;;;;;9.50;8.00;;;;;11.39;82.83;97913.03;5076396;28;8850;-60
2023/10/26 10:08:53;;;;;;;;;9.25;7.50;;;;;11.42;83.09;97914.50;5077394;28;8843;-60
2023/10/26 10:11:21;;;;;;;;;10.00;8.25;;;;;11.49;82.92;97908.31;5077400;28;8820;-58
2023/10/26 10:13:49;;;;;;;;;12.50;11.00;;;;;11.59;82.48;97911.59;5077286;28;8887;-59
2023/10/26 10:16:16;;;;;;;;;12.00;9.75;;;;;11.69;82.41;97916.69;5077065;28;8828;-60
2023/10/26 10:18:44;;;;;;;;;17.75;14.00;;;;;11.81;82.30;97916.09;5076687;28;8937;-58
2023/10/26 10:21:12;;;;;;;;;12.75;9.00;;;;;11.93;81.89;97927.16;5076689;28;8844;-58
2023/10/26 10:23:41;;;;;;;;;11.25;9.75;;;;;11.98;81.36;97924.78;5077143;28;8840;-59
2023/10/26 10:26:09;;;;;;;;;10.00;9.75;;;;;12.03;81.53;97915.22;5076753;28;8835;-59
2023/10/26 10:28:53;;;;;;;;;10.75;9.00;;;;;12.11;81.65;97913.34;5076634;28;8979;-59
2023/10/26 10:31:21;;;;;;;;;13.25;10.25;;;;;12.23;81.57;97898.50;5076827;28;8847;-58
2023/10/26 10:33:49;;;;;;;;;13.50;12.00;;;;;12.38;81.09;97895.88;5076799;28;8858;-61
2023/10/26 10:36:20;;;;;;;;;14.00;12.00;;;;;12.53;80.62;97897.53;5076647;28;9509;-58
2023/10/26 10:38:48;;;;;;;;;13.50;12.00;;;;;12.68;80.64;97900.22;5075915;28;8828;-60
2023/10/26 10:41:16;;;;;;;;;13.00;11.50;;;;;12.76;80.52;97889.41;5074816;28;8909;-59
2023/10/26 10:43:44;;;;;;;;;10.75;10.25;;;;;12.77;80.46;97893.75;5075000;28;8850;-57
2023/10/26 10:46:12;;;;;;;;;14.00;12.75;;;;;12.78;79.90;97890.06;5075543;28;9575;-58
2023/10/26 10:48:43;;;;;;;;;16.00;11.50;;;;;12.79;80.50;97886.38;5076192;28;8808;-61
2023/10/26 10:51:11;;;;;;;;;14.00;11.50;;;;;12.84;80.56;97886.66;5076072;28;8836;-60
2023/10/26 10:53:39;;;;;;;;;12.75;10.50;;;;;12.93;80.01;97882.84;5076657;28;8840;-58
2023/10/26 10:56:09;;;;;;;;;11.50;8.00;;;;;13.25;79.64;97877.09;5075935;28;9510;-58
2023/10/26 10:58:39;;;;;;;;;9.50;7.00;;;;;13.80;78.57;97872.69;5076380;28;8836;-58
2023/10/26 11:01:07;;;;;;;;;12.75;12.25;;;;;14.26;77.77;97867.75;5076076;28;8918;-58
2023/10/26 11:03:35;;;;;;;;;10.50;9.75;;;;;14.36;77.20;97873.56;5076002;28;8831;-59
2023/10/26 11:06:07;;;;;;;;;7.50;7.00;;;;;14.24;77.78;97872.44;5075729;28;8843;-59
2023/10/26 11:08:35;;;;;;;;;15.75;11.00;;;;;14.17;77.76;97867.03;5075162;28;9833;-58
2023/10/26 11:11:05;;;;;;;;;9.00;8.50;;;;;14.14;78.39;97866.59;5075242;28;8905;-57
2023/10/26 11:13:33;;;;;;;;;12.00;9.75;;;;;14.10;77.78;97874.19;5075775;28;8824;-57
2023/10/26 11:16:01;;;;;;;;;9.25;7.50;;;;;14.03;78.13;97867.13;5075447;28;8862;-58
2023/10/26 11:18:30;;;;;;;;;13.00;12.00;;;;;13.96;78.39;97879.63;5075076;28;8844;-57
2023/10/26 11:20:59;;;;;;;;;12.25;10.50;;;;;13.94;78.58;97873.63;5075614;28;8844;-60
2023/10/26 11:23:27;;;;;;;;;11.50;11.50;;;;;13.91;78.63;97868.66;5075647;28;8843;-58
2023/10/26 11:25:54;;;;;;;;;9.50;9.00;;;;;13.84;79.24;97873.97;5075227;28;8843;-58
2023/10/26 11:28:23;;;;;;;;;17.00;11.00;;;;;13.80;78.82;97866.50;5075308;28;8843;-60
2023/10/26 11:30:51;;;;;;;;;7.75;6.50;;;;;13.73;79.01;97871.81;5075645;28;8845;-59
2023/10/26 11:33:19;;;;;;;;;7.00;4.00;;;;;13.68;78.98;97865.38;5074932;28;8909;-58
2023/10/26 11:35:47;;;;;;;;;13.25;11.50;;;;;13.70;78.91;97850.81;5074923;28;8966;-59